Time;durP1;ratioP1;P1;durP2;ratioP2;P2;SDS_P1;SDS_P2;PMS_P1;PMS_P2;Temp;Humidity;BMP_temperature;BMP_pressure;BME280_temperature;BME280_humidity;BME280_pressure;Samples;Min_cycle;Max_cycle;Signal;HPM_P1;HPM_P2
2022/09/03 00:01:06;;;;;;;2.20;0.80;;;;;;;17.75;46.27;96369.09;4898045;29;20064;-79
2022/09/03 00:03:40;;;;;;;0.98;0.85;;;;;;;17.74;46.40;96356.16;4898274;29;20144;-82
2022/09/03 00:06:16;;;;;;;1.23;0.90;;;;;;;17.74;46.43;96353.53;4897505;29;20435;-82
2022/09/03 00:08:48;;;;;;;2.92;0.95;;;;;;;17.73;46.43;96354.53;4897216;29;20109;-82
2022/09/03 00:11:19;;;;;;;2.08;0.75;;;;;;;17.73;46.49;96357.97;4897005;29;20085;-82
2022/09/03 00:13:55;;;;;;;0.73;0.70;;;;;;;17.77;48.43;96353.03;4897405;29;20049;-82
2022/09/03 00:16:26;;;;;;;0.80;0.80;;;;;;;17.80;46.82;96355.19;4897395;29;20144;-82
2022/09/03 00:18:59;;;;;;;2.05;0.90;;;;;;;17.78;46.83;96354.66;4897323;29;20056;-82
2022/09/03 00:21:37;;;;;;;3.15;1.17;;;;;;;17.74;46.74;96356.16;4896956;29;20056;-82
2022/09/03 00:24:10;;;;;;;0.88;0.88;;;;;;;17.70;46.93;96361.88;4897278;29;20088;-82
2022/09/03 00:26:45;;;;;;;2.83;1.13;;;;;;;17.68;46.92;96355.25;4897550;29;20052;-81
2022/09/03 00:29:16;;;;;;;1.00;0.90;;;;;;;17.65;46.89;96351.22;4898080;29;20060;-80
2022/09/03 00:31:47;;;;;;;1.42;0.95;;;;;;;17.63;47.15;96358.56;4897700;29;20131;-80
2022/09/03 00:34:21;;;;;;;0.93;0.60;;;;;;;17.59;47.21;96360.06;4902969;29;20112;-82
2022/09/03 00:36:49;;;;;;;2.90;0.80;;;;;;;17.56;47.31;96360.53;4896960;29;20531;-82
2022/09/03 00:39:20;;;;;;;2.63;1.33;;;;;;;17.55;47.33;96353.66;4897375;29;20084;-82
2022/09/03 00:42:06;;;;;;;1.20;1.05;;;;;;;17.54;47.36;96362.63;4896662;29;20143;-82
2022/09/03 00:44:47;;;;;;;1.95;0.70;;;;;;;17.49;47.62;96362.47;4896881;29;20060;-82
2022/09/03 00:47:24;;;;;;;1.38;1.10;;;;;;;17.41;47.86;96355.75;4897154;29;20503;-82
2022/09/03 00:50:03;;;;;;;2.50;0.90;;;;;;;17.40;48.02;96356.75;4897010;29;20056;-82
2022/09/03 00:52:44;;;;;;;2.28;1.10;;;;;;;17.39;48.27;96359.66;4897095;29;20144;-80
2022/09/03 00:55:22;;;;;;;2.53;0.90;;;;;;;17.37;48.06;96367.78;4902025;29;20060;-80
2022/09/03 00:58:02;;;;;;;1.05;0.80;;;;;;;17.39;48.70;96364.91;4901036;29;20143;-80
2022/09/03 01:00:30;;;;;;;1.48;1.13;;;;;;;17.38;48.30;96368.56;4900414;29;20499;-80
2022/09/03 01:03:07;;;;;;;0.90;0.90;;;;;;;17.36;48.37;96360.09;4901094;29;20139;-80
2022/09/03 01:05:43;;;;;;;0.90;0.77;;;;;;;17.35;48.81;96358.50;4901209;29;20056;-80
2022/09/03 01:08:31;;;;;;;0.82;0.80;;;;;;;17.35;48.43;96367.19;4901314;29;20053;-80
2022/09/03 01:11:09;;;;;;;0.80;0.80;;;;;;;17.34;48.58;96359.50;4900909;29;20071;-80
2022/09/03 01:13:43;;;;;;;2.67;1.00;;;;;;;17.28;48.74;96367.31;4900920;29;20049;-80
2022/09/03 01:16:20;;;;;;;1.58;1.17;;;;;;;17.27;48.72;96368.38;4901423;29;20096;-80
2022/09/03 01:18:54;;;;;;;1.73;1.23;;;;;;;17.29;48.94;96360.22;4901211;29;20140;-80
2022/09/03 01:21:54;;;;;;;3.22;1.20;;;;;;;17.31;48.93;96358.16;4900793;29;20052;-79
2022/09/03 01:24:35;;;;;;;1.10;1.00;;;;;;;17.29;48.88;96355.75;4900985;29;20491;-80
2022/09/03 01:27:19;;;;;;;1.55;0.85;;;;;;;17.32;49.52;96359.75;4900935;29;20587;-80
2022/09/03 01:29:57;;;;;;;2.38;1.13;;;;;;;17.34;49.45;96356.88;4900787;29;20052;-80
2022/09/03 01:32:33;;;;;;;1.95;1.10;;;;;;;17.33;49.10;96350.81;4901499;29;20144;-80
2022/09/03 01:35:08;;;;;;;2.67;1.20;;;;;;;17.32;49.32;96359.75;4900794;29;20566;-80
2022/09/03 01:37:46;;;;;;;1.20;1.10;;;;;;;17.30;49.23;96357.34;4900962;29;20116;-80
2022/09/03 01:40:19;;;;;;;1.20;0.82;;;;;;;17.32;49.79;96354.50;4900900;29;20140;-80
2022/09/03 01:42:59;;;;;;;1.33;1.02;;;;;;;17.38;49.89;96355.38;4900120;29;20057;-80
2022/09/03 01:45:43;;;;;;;1.10;1.05;;;;;;;17.38;49.48;96347.47;4899902;29;20128;-80
2022/09/03 01:48:32;;;;;;;1.33;1.23;;;;;;;17.32;49.33;96351.03;4901565;29;20075;-80
2022/09/03 01:51:09;;;;;;;1.90;1.42;;;;;;;17.24;49.51;96352.19;4902113;29;20060;-79
2022/09/03 01:54:20;;;;;;;3.78;1.17;;;;;;;17.16;49.86;96355.97;4902138;29;20084;-79
2022/09/03 01:57:08;;;;;;;1.70;1.20;;;;;;;17.09;49.99;96344.75;4900523;29;20602;-80
2022/09/03 02:00:01;;;;;;;3.03;1.30;;;;;;;17.06;50.35;96350.47;4921419;29;20037;-80
2022/09/03 02:02:31;;;;;;;1.15;1.05;;;;;;;17.03;50.16;96350.91;4923345;29;20048;-80
2022/09/03 02:05:01;;;;;;;1.42;1.20;;;;;;;17.00;50.44;96349.56;4909559;29;20078;-80
2022/09/03 02:07:33;;;;;;;1.48;1.38;;;;;;;16.95;50.51;96340.75;4901628;29;20147;-80
2022/09/03 02:10:02;;;;;;;2.30;1.35;;;;;;;16.95;50.50;96346.81;4900731;29;20113;-80
2022/09/03 02:12:33;;;;;;;1.17;1.00;;;;;;;16.91;50.58;96344.84;4900573;29;20052;-80
2022/09/03 02:15:05;;;;;;;1.35;1.25;;;;;;;16.87;50.71;96347.13;4900410;29;20132;-80
2022/09/03 02:17:36;;;;;;;3.67;1.45;;;;;;;16.86;51.03;96341.06;4900521;29;20100;-80
2022/09/03 02:20:09;;;;;;;1.83;1.25;;;;;;;16.86;51.16;96345.56;4899734;29;20108;-80
2022/09/03 02:22:36;;;;;;;1.15;1.00;;;;;;;16.86;51.12;96346.34;4899798;29;20113;-80
2022/09/03 02:25:05;;;;;;;1.35;1.25;;;;;;;16.88;51.08;96339.00;4899554;29;20060;-80
2022/09/03 02:27:32;;;;;;;1.38;1.17;;;;;;;16.83;51.12;96341.50;4899809;29;20052;-80
2022/09/03 02:30:00;;;;;;;3.88;1.20;;;;;;;16.80;51.39;96341.97;4899814;29;20135;-80
2022/09/03 02:32:28;;;;;;;1.02;0.93;;;;;;;16.79;51.36;96345.63;4899501;29;20083;-80
2022/09/03 02:34:57;;;;;;;1.17;1.13;;;;;;;16.83;51.91;96352.03;4899448;29;20100;-80
2022/09/03 02:37:25;;;;;;;1.20;1.20;;;;;;;16.88;51.76;96348.75;4901067;29;20076;-79
2022/09/03 02:39:53;;;;;;;2.63;1.33;;;;;;;16.91;51.19;96344.84;4922428;29;20052;-80
2022/09/03 02:42:21;;;;;;;2.20;1.42;;;;;;;16.93;51.16;96353.34;4922332;29;20068;-80
2022/09/03 02:44:52;;;;;;;1.38;1.15;;;;;;;16.93;51.39;96358.63;4907773;29;20511;-80
2022/09/03 02:47:20;;;;;;;1.40;1.30;;;;;;;16.94;51.23;96358.38;4901809;29;20053;-80
2022/09/03 02:49:48;;;;;;;2.72;1.10;;;;;;;16.95;51.21;96356.56;4901419;29;20427;-80
2022/09/03 02:52:17;;;;;;;2.13;1.10;;;;;;;16.98;52.59;96353.44;4899845;29;20101;-80
2022/09/03 02:54:45;;;;;;;2.55;1.35;;;;;;;17.03;51.21;96351.75;4899381;29;20091;-80
2022/09/03 02:57:15;;;;;;;1.42;1.08;;;;;;;17.06;52.14;96347.84;4898993;29;20105;-80
2022/09/03 02:59:46;;;;;;;3.08;1.50;;;;;;;17.09;51.39;96347.38;4899685;29;20419;-83
2022/09/03 03:02:14;;;;;;;1.52;1.00;;;;;;;17.13;52.05;96359.06;4899219;29;20083;-80
2022/09/03 03:04:41;;;;;;;1.25;1.15;;;;;;;17.16;52.77;96355.97;4899501;29;20044;-82
2022/09/03 03:07:09;;;;;;;2.22;1.10;;;;;;;17.21;51.65;96352.66;4900058;29;20076;-80
2022/09/03 03:09:38;;;;;;;1.52;1.42;;;;;;;17.23;51.77;96356.69;4899524;29;20139;-80
2022/09/03 03:12:07;;;;;;;1.73;1.00;;;;;;;17.22;51.37;96355.06;4900095;29;20112;-80
2022/09/03 03:14:36;;;;;;;1.90;1.30;;;;;;;17.15;51.29;96354.38;4900271;29;20503;-83
2022/09/03 03:17:04;;;;;;;1.88;1.30;;;;;;;17.14;51.12;96357.22;4898632;29;20590;-81
2022/09/03 03:19:32;;;;;;;1.40;1.27;;;;;;;17.13;51.42;96360.91;4899941;29;20088;-80
2022/09/03 03:22:00;;;;;;;1.10;1.00;;;;;;;17.11;51.27;96362.97;4899193;29;20091;-81
2022/09/03 03:24:27;;;;;;;1.38;1.27;;;;;;;17.08;51.29;96364.22;4898466;29;20144;-80
2022/09/03 03:26:58;;;;;;;2.28;1.30;;;;;;;17.04;51.44;96363.88;4898465;29;20144;-80
2022/09/03 03:29:26;;;;;;;1.38;1.25;;;;;;;17.03;51.35;96361.47;4898188;29;20076;-81
2022/09/03 03:31:53;;;;;;;1.42;1.33;;;;;;;16.99;51.54;96360.31;4898345;29;20104;-80
2022/09/03 03:34:21;;;;;;;1.90;1.40;;;;;;;16.98;51.57;96364.78;4898559;29;20108;-80
2022/09/03 03:36:49;;;;;;;1.52;1.42;;;;;;;16.95;51.69;96365.25;4898292;29;20517;-80
2022/09/03 03:39:17;;;;;;;1.65;1.55;;;;;;;16.92;51.79;96364.91;4898472;29;20076;-80
2022/09/03 03:41:44;;;;;;;1.45;1.35;;;;;;;16.88;51.97;96365.34;4897463;29;20052;-80
2022/09/03 03:44:14;;;;;;;2.28;1.50;;;;;;;16.85;51.97;96376.34;4898243;29;20108;-81
2022/09/03 03:46:41;;;;;;;2.30;1.23;;;;;;;16.82;51.93;96368.91;4898046;29;20463;-80
2022/09/03 03:49:09;;;;;;;1.80;1.58;;;;;;;16.81;52.21;96369.13;4898122;29;20475;-80
2022/09/03 03:51:39;;;;;;;1.92;1.30;;;;;;;16.80;52.21;96375.44;4897529;29;20048;-81
2022/09/03 03:54:07;;;;;;;1.38;1.10;;;;;;;16.78;52.38;96380.88;4897587;29;20052;-81
2022/09/03 03:56:35;;;;;;;2.03;1.45;;;;;;;16.76;52.34;96387.41;4897783;29;20642;-80
2022/09/03 03:59:04;;;;;;;1.83;1.17;;;;;;;16.73;52.74;96383.41;4898593;29;20470;-80
2022/09/03 04:01:33;;;;;;;1.70;1.50;;;;;;;16.73;52.67;96378.13;4897632;29;20075;-80
2022/09/03 04:04:01;;;;;;;2.08;1.55;;;;;;;16.76;52.69;96382.94;4897717;29;20484;-80
2022/09/03 04:06:28;;;;;;;1.88;1.38;;;;;;;16.77;52.69;96379.28;4897647;29;20567;-81
2022/09/03 04:08:56;;;;;;;5.07;1.45;;;;;;;16.76;52.63;96376.88;4897577;29;20052;-80
2022/09/03 04:11:24;;;;;;;1.45;1.05;;;;;;;16.79;52.69;96381.69;4897584;29;20076;-81
2022/09/03 04:13:53;;;;;;;3.33;1.60;;;;;;;16.76;52.80;96380.31;4897646;29;20052;-80
2022/09/03 04:16:22;;;;;;;1.60;1.15;;;;;;;16.76;52.98;96384.78;4897680;29;20080;-80
2022/09/03 04:18:52;;;;;;;1.85;1.50;;;;;;;16.77;53.41;96378.47;4897650;29;20416;-80
2022/09/03 04:21:22;;;;;;;1.92;1.52;;;;;;;16.79;53.78;96379.03;4897425;29;20095;-81
2022/09/03 04:23:51;;;;;;;1.60;1.20;;;;;;;16.84;53.88;96373.94;4897232;29;20131;-80
2022/09/03 04:26:20;;;;;;;1.27;1.17;;;;;;;16.87;53.52;96374.28;4897604;29;20553;-81
2022/09/03 04:28:48;;;;;;;1.55;1.42;;;;;;;16.89;53.75;96371.44;4900791;29;20139;-80
2022/09/03 04:31:18;;;;;;;1.42;1.33;;;;;;;16.93;54.71;96375.22;4901018;29;20135;-81
2022/09/03 04:33:46;;;;;;;1.40;1.30;;;;;;;16.94;53.17;96389.97;4901528;29;20489;-80
2022/09/03 04:36:17;;;;;;;1.80;1.30;;;;;;;16.94;53.73;96395.25;4901418;29;20045;-80
2022/09/03 04:38:46;;;;;;;1.33;1.23;;;;;;;16.96;53.01;96387.91;4901248;29;20108;-80
2022/09/03 04:41:16;;;;;;;1.38;1.20;;;;;;;16.95;53.23;96382.91;4901115;29;20108;-80
2022/09/03 04:43:44;;;;;;;1.55;1.20;;;;;;;16.96;54.02;96382.66;4901146;29;20493;-80
2022/09/03 04:46:19;;;;;;;1.33;1.17;;;;;;;16.98;55.26;96377.16;4900967;29;20052;-80
2022/09/03 04:48:48;;;;;;;2.25;1.63;;;;;;;16.95;53.40;96375.00;4901176;29;20059;-80
2022/09/03 04:51:19;;;;;;;1.30;1.20;;;;;;;16.89;53.34;96384.59;4900584;29;20075;-80
2022/09/03 04:53:48;;;;;;;2.60;1.45;;;;;;;16.87;53.31;96382.19;4900643;29;20131;-80
2022/09/03 04:56:18;;;;;;;3.38;1.38;;;;;;;16.84;53.43;96377.38;4900895;29;20052;-80
2022/09/03 04:58:46;;;;;;;2.40;1.60;;;;;;;16.85;53.94;96388.72;4900651;29;20060;-80
2022/09/03 05:01:19;;;;;;;2.03;1.83;;;;;;;16.84;53.29;96384.47;4900559;29;20072;-80
2022/09/03 05:03:47;;;;;;;1.45;1.35;;;;;;;16.83;53.26;96380.22;4900811;29;20287;-80
2022/09/03 05:06:15;;;;;;;2.45;1.70;;;;;;;16.80;53.46;96378.06;4900587;29;20056;-80
2022/09/03 05:08:47;;;;;;;3.00;1.80;;;;;;;16.82;53.64;96374.16;4900751;29;20049;-80
2022/09/03 05:11:17;;;;;;;2.63;2.08;;;;;;;16.84;53.42;96382.66;4900247;29;20060;-80
2022/09/03 05:13:48;;;;;;;2.53;1.88;;;;;;;16.86;53.53;96385.84;4900811;29;20080;-80
2022/09/03 05:16:17;;;;;;;1.75;1.65;;;;;;;16.85;53.37;96376.34;4900730;29;20104;-80
2022/09/03 05:18:46;;;;;;;1.70;1.60;;;;;;;16.80;53.39;96376.22;4900530;29;20057;-80
2022/09/03 05:21:15;;;;;;;1.65;1.55;;;;;;;16.79;53.66;96390.41;4900455;29;20135;-81
2022/09/03 05:23:46;;;;;;;2.00;1.50;;;;;;;16.82;54.11;96381.28;4900003;29;20087;-80
2022/09/03 05:26:16;;;;;;;1.45;1.35;;;;;;;16.84;53.43;96387.91;4900593;29;20062;-80
2022/09/03 05:28:45;;;;;;;2.58;1.55;;;;;;;16.79;53.70;96390.41;4900509;29;20049;-81
2022/09/03 05:31:14;;;;;;;4.15;1.88;;;;;;;16.76;53.45;96392.69;4900114;29;20128;-81
2022/09/03 05:33:44;;;;;;;4.60;1.70;;;;;;;16.71;53.83;96389.94;4907922;29;20100;-80
2022/09/03 05:36:13;;;;;;;1.95;1.70;;;;;;;16.66;54.06;96387.94;4923822;29;20055;-80
2022/09/03 05:38:40;;;;;;;3.22;1.38;;;;;;;16.64;54.04;96390.81;4922089;29;20057;-81
2022/09/03 05:41:11;;;;;;;2.60;1.67;;;;;;;16.62;54.25;96395.50;4902437;29;20131;-81
2022/09/03 05:43:40;;;;;;;1.63;1.52;;;;;;;16.60;54.04;96391.50;4901494;29;20459;-80
2022/09/03 05:46:09;;;;;;;2.08;1.70;;;;;;;16.56;54.13;96390.34;4900452;29;20059;-80
2022/09/03 05:48:38;;;;;;;2.30;1.52;;;;;;;16.49;54.51;96379.91;4900386;29;20060;-80
2022/09/03 05:51:08;;;;;;;1.73;1.38;;;;;;;16.42;54.70;96372.09;4899703;29;20143;-80
2022/09/03 05:53:37;;;;;;;2.17;1.80;;;;;;;16.41;54.72;96383.63;4900152;29;20132;-80
2022/09/03 05:56:09;;;;;;;4.10;2.03;;;;;;;16.42;54.76;96393.16;4900434;29;20056;-80
2022/09/03 05:58:42;;;;;;;3.15;1.92;;;;;;;16.44;55.06;96388.47;4900349;29;20052;-81
2022/09/03 06:01:11;;;;;;;1.77;1.55;;;;;;;16.46;54.74;96394.31;4899373;29;20076;-80
2022/09/03 06:03:39;;;;;;;1.92;1.73;;;;;;;16.45;54.76;96382.16;4899697;29;20064;-81
2022/09/03 06:06:07;;;;;;;2.88;1.70;;;;;;;16.43;54.94;96386.84;4902496;29;20135;-80
2022/09/03 06:08:37;;;;;;;1.50;1.40;;;;;;;16.39;55.20;96393.59;4922984;29;20039;-80
2022/09/03 06:11:05;;;;;;;3.70;1.70;;;;;;;16.37;55.38;96398.28;4922520;29;20056;-81
2022/09/03 06:13:34;;;;;;;1.83;1.67;;;;;;;16.37;55.19;96394.84;4912022;29;20060;-80
2022/09/03 06:16:05;;;;;;;1.88;1.75;;;;;;;16.32;55.68;96398.16;4903139;29;20049;-80
2022/09/03 06:18:33;;;;;;;1.58;1.48;;;;;;;16.30;55.61;96388.88;4902201;29;20056;-80
2022/09/03 06:21:02;;;;;;;3.60;2.30;;;;;;;16.31;56.01;96401.00;4900784;29;20069;-80
2022/09/03 06:23:32;;;;;;;3.80;1.90;;;;;;;16.29;55.84;96393.34;4900436;29;20056;-80
2022/09/03 06:26:01;;;;;;;2.10;1.90;;;;;;;16.26;56.20;96393.78;4900295;29;20088;-80
2022/09/03 06:28:33;;;;;;;3.85;2.15;;;;;;;16.25;56.24;96392.19;4899531;29;20048;-80
2022/09/03 06:31:01;;;;;;;1.80;1.70;;;;;;;16.30;56.33;96394.94;4899691;29;20153;-80
2022/09/03 06:33:32;;;;;;;3.00;2.30;;;;;;;16.38;56.30;96396.47;4899295;29;20496;-80
2022/09/03 06:36:01;;;;;;;2.47;1.63;;;;;;;16.46;56.24;96406.66;4899243;29;20049;-80
2022/09/03 06:38:36;;;;;;;2.95;1.85;;;;;;;16.48;56.01;96415.94;4899150;29;20139;-80
2022/09/03 06:41:06;;;;;;;5.07;2.08;;;;;;;16.45;56.16;96408.50;4899212;29;20143;-80
2022/09/03 06:43:35;;;;;;;6.28;2.20;;;;;;;16.45;56.49;96408.50;4898912;29;20564;-80
2022/09/03 06:46:05;;;;;;;4.57;1.90;;;;;;;16.51;56.43;96405.97;4899206;29;20100;-80
2022/09/03 06:48:36;;;;;;;2.10;1.90;;;;;;;16.56;56.35;96414.03;4899314;29;20056;-81
2022/09/03 06:51:06;;;;;;;3.38;1.70;;;;;;;16.58;56.19;96412.78;4898909;29;20125;-81
2022/09/03 06:53:35;;;;;;;3.60;2.08;;;;;;;16.58;56.45;96419.88;4899027;29;20144;-80
2022/09/03 06:56:05;;;;;;;1.75;1.58;;;;;;;16.57;56.58;96415.63;4899153;29;20049;-80
2022/09/03 06:58:36;;;;;;;2.60;2.13;;;;;;;16.59;56.58;96416.22;4898973;29;20056;-80
2022/09/03 07:01:06;;;;;;;2.45;1.77;;;;;;;16.58;56.83;96423.31;4898721;29;20606;-80
2022/09/03 07:03:36;;;;;;;3.80;2.20;;;;;;;16.60;56.87;96423.09;4898919;29;20135;-80
2022/09/03 07:06:06;;;;;;;5.07;1.88;;;;;;;16.59;57.23;96422.28;4898531;29;20091;-80
2022/09/03 07:08:34;;;;;;;2.15;1.83;;;;;;;16.62;58.96;96428.94;4898778;29;20127;-80
2022/09/03 07:11:04;;;;;;;3.85;2.38;;;;;;;16.66;60.06;96432.72;4898140;29;20546;-80
2022/09/03 07:13:33;;;;;;;2.65;1.88;;;;;;;16.66;60.64;96430.06;4898490;29;20056;-80
2022/09/03 07:16:01;;;;;;;2.75;1.98;;;;;;;16.61;61.42;96422.06;4898766;29;20104;-80
2022/09/03 07:18:29;;;;;;;2.63;2.42;;;;;;;16.57;62.17;96421.69;4898112;29;20140;-80
2022/09/03 07:21:00;;;;;;;2.97;2.03;;;;;;;16.55;62.68;96418.50;4898110;29;20131;-80
2022/09/03 07:23:29;;;;;;;2.42;2.22;;;;;;;16.51;62.68;96409.44;4898328;29;20139;-80
2022/09/03 07:25:58;;;;;;;8.57;3.15;;;;;;;16.49;62.99;96416.75;4898302;29;20148;-81
2022/09/03 07:28:27;;;;;;;3.03;2.63;;;;;;;16.45;63.64;96413.75;4898260;29;20052;-80
2022/09/03 07:31:00;;;;;;;3.78;3.30;;;;;;;16.44;63.68;96417.44;4898371;29;20165;-80
2022/09/03 07:33:29;;;;;;;3.63;2.95;;;;;;;16.42;64.08;96408.97;4898715;29;20095;-81
2022/09/03 07:36:07;;;;;;;6.18;3.20;;;;;;;16.44;64.78;96406.91;4899102;29;20044;-80
2022/09/03 07:38:35;;;;;;;3.30;2.78;;;;;;;16.42;64.46;96406.31;4898896;29;20546;-80
2022/09/03 07:41:05;;;;;;;3.88;3.15;;;;;;;16.43;65.03;96412.38;4898429;29;20098;-80
2022/09/03 07:43:35;;;;;;;3.45;2.78;;;;;;;16.47;65.03;96408.28;4897981;29;20071;-80
2022/09/03 07:46:03;;;;;;;4.97;3.40;;;;;;;16.54;64.58;96408.19;4898165;29;20052;-80
2022/09/03 07:48:30;;;;;;;3.70;2.47;;;;;;;16.60;64.76;96397.56;4898077;29;20079;-81
2022/09/03 07:51:05;;;;;;;3.75;3.00;;;;;;;16.75;65.07;96405.06;4898013;29;20080;-80
2022/09/03 07:53:33;;;;;;;6.07;3.33;;;;;;;16.87;64.76;96405.88;4897985;29;20166;-81
2022/09/03 07:56:02;;;;;;;2.50;2.30;;;;;;;17.00;64.86;96404.88;4897795;29;20072;-81
2022/09/03 07:58:30;;;;;;;3.28;2.92;;;;;;;17.21;64.37;96406.19;4898004;29;20468;-81
2022/09/03 08:00:59;;;;;;;3.20;2.50;;;;;;;17.46;64.34;96418.34;4897429;29;20529;-81
2022/09/03 08:03:27;;;;;;;3.17;2.83;;;;;;;17.70;63.54;96416.47;4897095;29;20052;-81
2022/09/03 08:06:00;;;;;;;3.28;2.92;;;;;;;17.97;63.60;96416.81;4897847;29;20104;-81
2022/09/03 08:08:30;;;;;;;2.92;2.63;;;;;;;18.30;62.90;96408.22;4897770;29;20529;-80
2022/09/03 08:11:09;;;;;;;3.40;2.95;;;;;;;18.67;61.93;96396.47;4897234;29;20099;-81
2022/09/03 08:13:39;;;;;;;3.05;2.75;;;;;;;19.01;60.81;96404.47;4897632;29;20555;-80
2022/09/03 08:16:08;;;;;;;3.25;2.80;;;;;;;19.29;60.12;96404.38;4897808;29;20448;-81
2022/09/03 08:18:37;;;;;;;5.32;3.58;;;;;;;19.62;59.34;96401.94;4897815;29;20108;-81
2022/09/03 08:21:07;;;;;;;4.38;2.90;;;;;;;19.89;59.05;96407.34;4897440;29;20099;-81
2022/09/03 08:23:38;;;;;;;3.30;3.00;;;;;;;20.16;58.97;96408.22;4897656;29;20090;-81
2022/09/03 08:26:06;;;;;;;3.35;2.78;;;;;;;20.45;58.21;96409.84;4899164;29;20060;-80
2022/09/03 08:28:35;;;;;;;3.70;2.72;;;;;;;20.63;57.21;96411.38;4898476;29;20052;-80
2022/09/03 08:31:07;;;;;;;2.45;2.25;;;;;;;20.81;56.47;96411.00;4898255;29;20048;-80
2022/09/03 08:33:37;;;;;;;2.95;2.65;;;;;;;21.07;56.40;96405.91;4898607;29;20135;-80
2022/09/03 08:36:07;;;;;;;5.18;2.70;;;;;;;21.29;55.42;96408.47;4898455;29;20084;-80
2022/09/03 08:38:37;;;;;;;2.60;2.40;;;;;;;21.39;55.75;96413.88;4898351;29;20546;-80
2022/09/03 08:41:10;;;;;;;2.85;2.58;;;;;;;21.43;54.65;96424.78;4897212;29;20084;-80
2022/09/03 08:43:55;;;;;;;6.10;2.85;;;;;;;21.38;54.85;96417.56;4898107;29;20109;-80
2022/09/03 08:46:31;;;;;;;3.45;2.45;;;;;;;21.32;55.45;96422.03;4898383;29;20080;-80
2022/09/03 08:49:00;;;;;;;3.20;2.75;;;;;;;21.27;55.40;96424.63;4898314;29;20586;-80
2022/09/03 08:51:27;;;;;;;2.92;2.40;;;;;;;21.24;55.56;96419.84;4897386;29;20144;-81
2022/09/03 08:53:57;;;;;;;3.03;2.25;;;;;;;21.28;55.75;96425.47;4897358;29;20052;-81
2022/09/03 08:56:30;;;;;;;2.53;2.33;;;;;;;21.32;55.30;96419.38;4897477;29;20578;-81
2022/09/03 08:59:00;;;;;;;3.67;2.95;;;;;;;21.39;55.56;96425.25;4897509;29;20116;-81
2022/09/03 09:01:41;;;;;;;4.18;2.75;;;;;;;21.51;55.57;96421.66;4900047;29;20041;-81
2022/09/03 09:04:24;;;;;;;2.67;2.13;;;;;;;21.67;55.46;96425.19;4900271;29;20053;-81
2022/09/03 09:06:56;;;;;;;;;;;;;;;21.84;55.44;96422.38;4899978;29;20488;-81
2022/09/03 09:09:30;;;;;;;3.33;2.33;;;;;;;21.95;54.75;96424.03;4919325;29;19934;-81
2022/09/03 09:12:10;;;;;;;3.58;2.28;;;;;;;21.98;54.07;96432.28;4920256;29;20093;-81
2022/09/03 09:14:52;;;;;;;3.05;2.33;;;;;;;22.04;54.64;96425.16;4903873;29;20456;-82
2022/09/03 09:17:31;;;;;;;2.50;2.30;;;;;;;22.09;54.00;96427.81;4902791;29;20056;-81
2022/09/03 09:20:06;;;;;;;2.25;2.10;;;;;;;22.14;53.93;96429.69;4901823;29;20141;-81
2022/09/03 09:22:38;;;;;;;2.90;2.35;;;;;;;22.20;53.90;96429.44;4901692;29;20083;-81
2022/09/03 09:25:13;;;;;;;6.82;2.20;;;;;;;22.31;53.85;96421.56;4902409;29;20060;-81
2022/09/03 09:27:50;;;;;;;5.85;1.98;;;;;;;22.43;54.09;96427.41;4901936;29;20084;-81
2022/09/03 09:30:19;;;;;;;2.83;1.85;;;;;;;22.54;53.55;96431.72;4902368;29;20646;-81
2022/09/03 09:32:47;;;;;;;2.42;2.22;;;;;;;22.65;52.82;96421.09;4902335;29;20064;-81
2022/09/03 09:35:16;;;;;;;3.25;2.50;;;;;;;22.67;52.66;96426.94;4916182;29;20056;-81
2022/09/03 09:37:49;;;;;;;2.42;2.05;;;;;;;22.64;52.81;96422.97;4923152;29;20037;-81
2022/09/03 09:40:34;;;;;;;2.67;2.47;;;;;;;22.55;53.04;96421.88;4913526;29;20053;-81
2022/09/03 09:43:12;;;;;;;4.30;2.28;;;;;;;22.49;54.24;96417.63;4913867;29;20057;-82
2022/09/03 09:45:42;;;;;;;3.10;2.30;;;;;;;22.46;53.56;96418.94;4922065;29;20036;-82
2022/09/03 09:48:18;;;;;;;4.25;2.53;;;;;;;22.39;53.47;96413.88;4922133;29;20108;-81
2022/09/03 09:50:46;;;;;;;2.15;1.92;;;;;;;22.35;54.76;96419.97;4904422;29;20471;-81
2022/09/03 09:53:17;;;;;;;2.30;2.10;;;;;;;22.32;53.42;96420.47;4903359;29;20072;-81
2022/09/03 09:55:50;;;;;;;2.15;1.95;;;;;;;22.28;54.10;96425.53;4903049;29;20052;-81
2022/09/03 09:58:22;;;;;;;1.83;1.67;;;;;;;22.29;54.06;96427.13;4903895;29;20530;-81
2022/09/03 10:00:58;;;;;;;1.83;1.73;;;;;;;22.30;53.99;96425.25;4902095;29;20566;-81
2022/09/03 10:03:28;;;;;;;3.22;2.00;;;;;;;22.30;54.12;96422.59;4903573;29;20153;-81
2022/09/03 10:06:52;;;;;;;2.65;2.30;;;;;;;22.32;53.68;96431.09;4901751;29;20073;-81
2022/09/03 10:09:05;;;;;;;3.08;1.98;;;;;;;22.41;53.28;96426.88;4901917;29;20088;-81
2022/09/03 10:11:37;;;;;;;3.22;1.90;;;;;;;22.57;53.58;96423.22;4902414;29;20113;-81
2022/09/03 10:14:13;;;;;;;2.45;2.25;;;;;;;22.70;52.69;96426.44;4901376;29;20048;-81
2022/09/03 10:16:47;;;;;;;2.38;2.10;;;;;;;22.78;52.66;96428.56;4902112;29;20056;-81
2022/09/03 10:19:20;;;;;;;2.47;1.98;;;;;;;22.97;52.72;96424.31;4901542;29;20064;-81
2022/09/03 10:21:57;;;;;;;1.85;1.40;;;;;;;23.22;51.50;96428.91;4901886;29;20056;-81
2022/09/03 10:24:47;;;;;;;3.85;1.95;;;;;;;23.66;51.37;96430.19;4901973;29;20092;-81
2022/09/03 10:27:17;;;;;;;2.00;1.80;;;;;;;24.05;49.79;96430.38;4902936;29;20052;-81
2022/09/03 10:29:46;;;;;;;2.67;2.00;;;;;;;24.45;49.09;96422.47;4904473;29;20530;-81
2022/09/03 10:32:27;;;;;;;2.20;1.85;;;;;;;24.64;48.01;96428.78;4903573;29;20052;-81
2022/09/03 10:35:19;;;;;;;2.85;2.08;;;;;;;24.68;49.07;96429.03;4905350;29;20056;-81
2022/09/03 10:37:55;;;;;;;2.08;1.88;;;;;;;24.72;48.58;96423.94;4908518;29;20052;-82
2022/09/03 10:40:31;;;;;;;3.88;1.90;;;;;;;24.64;48.81;96430.63;4907137;29;20056;-82
2022/09/03 10:43:15;;;;;;;2.10;1.88;;;;;;;24.77;48.21;96424.69;4907145;29;20053;-82
2022/09/03 10:45:55;;;;;;;1.88;1.77;;;;;;;25.15;47.24;96416.97;4908318;29;20057;-82
2022/09/03 10:48:50;;;;;;;2.35;1.85;;;;;;;25.47;46.54;96416.44;4910136;29;20051;-82
2022/09/03 10:51:24;;;;;;;2.78;1.85;;;;;;;25.57;45.58;96417.41;4910105;29;20064;-82
2022/09/03 10:54:10;;;;;;;1.90;1.80;;;;;;;25.70;45.02;96411.41;4909980;29;20053;-82
2022/09/03 10:56:46;;;;;;;2.00;1.73;;;;;;;25.79;44.95;96412.38;4911112;29;20587;-81
2022/09/03 10:59:32;;;;;;;1.60;1.20;;;;;;;25.94;44.98;96407.97;4910462;29;20056;-81
2022/09/03 11:02:21;;;;;;;1.70;1.60;;;;;;;26.06;44.34;96405.69;4912353;29;20044;-82
2022/09/03 11:04:56;;;;;;;1.77;1.67;;;;;;;26.15;44.98;96405.84;4911973;29;20081;-82
2022/09/03 11:07:30;;;;;;;2.35;1.63;;;;;;;26.22;44.32;96395.63;4912585;29;20063;-82
2022/09/03 11:10:07;;;;;;;1.38;1.08;;;;;;;26.26;43.08;96400.09;4913003;29;20049;-81
2022/09/03 11:12:42;;;;;;;2.53;1.00;;;;;;;26.30;43.56;96400.31;4913029;29;20053;-82
2022/09/03 11:15:15;;;;;;;1.42;1.33;;;;;;;26.38;43.23;96401.56;4912909;29;20059;-82
2022/09/03 11:17:50;;;;;;;1.40;1.30;;;;;;;26.47;43.62;96395.25;4913764;29;20059;-81
2022/09/03 11:20:21;;;;;;;1.65;1.30;;;;;;;26.54;43.15;96394.91;4913628;29;20197;-82
2022/09/03 11:22:55;;;;;;;1.42;1.30;;;;;;;26.59;43.14;96389.53;4909874;29;20049;-82
2022/09/03 11:25:30;;;;;;;1.85;1.75;;;;;;;26.68;42.32;96398.47;4910311;29;20075;-82
2022/09/03 11:28:11;;;;;;;1.63;1.52;;;;;;;26.74;42.11;96388.47;4911917;29;20062;-81
2022/09/03 11:30:53;;;;;;;2.60;2.20;;;;;;;26.63;41.65;96387.88;4910264;29;20434;-82
2022/09/03 11:33:24;;;;;;;;;;;;;;;26.59;42.86;96392.19;4911791;29;20072;-81
2022/09/03 11:35:59;;;;;;;1.45;1.35;;;;;;;26.51;44.77;96379.44;4909408;29;19923;-81
2022/09/03 11:38:30;;;;;;;1.55;1.45;;;;;;;26.39;42.84;96382.56;4908697;29;20083;-81
2022/09/03 11:41:11;;;;;;;1.90;1.50;;;;;;;26.25;42.87;96374.44;4909960;29;20059;-82
2022/09/03 11:43:41;;;;;;;1.58;1.48;;;;;;;26.21;42.42;96367.28;4911243;29;20063;-82
2022/09/03 11:46:12;;;;;;;2.25;1.42;;;;;;;26.17;42.26;96361.69;4909696;29;20053;-81
2022/09/03 11:48:44;;;;;;;3.17;1.45;;;;;;;26.22;42.50;96356.31;4908823;29;20133;-81
2022/09/03 11:51:29;;;;;;;1.73;1.52;;;;;;;26.27;42.53;96350.09;4909040;29;20052;-82
2022/09/03 11:53:59;;;;;;;1.60;1.50;;;;;;;26.26;42.04;96349.31;4911550;29;20059;-82
2022/09/03 11:56:53;;;;;;;1.65;1.55;;;;;;;26.26;42.47;96345.81;4914599;29;20060;-81
2022/09/03 11:59:26;;;;;;;1.23;1.23;;;;;;;26.27;42.94;96353.53;4882847;29;20052;-82